sensor_id;sensor_type;location;lat;lon;timestamp;P1;durP1;ratioP1;P2;durP2;ratioP2
6671;SDS011;3372;48.690;12.362;2022-07-10T00:01:47;8.10;;;6.90;;
6671;SDS011;3372;48.690;12.362;2022-07-10T00:04:13;8.17;;;7.30;;
6671;SDS011;3372;48.690;12.362;2022-07-10T00:06:38;7.63;;;6.93;;
6671;SDS011;3372;48.690;12.362;2022-07-10T00:09:06;8.20;;;7.40;;
6671;SDS011;3372;48.690;12.362;2022-07-10T00:11:32;8.40;;;7.50;;
6671;SDS011;3372;48.690;12.362;2022-07-10T00:13:58;9.00;;;8.10;;
6671;SDS011;3372;48.690;12.362;2022-07-10T00:16:23;8.00;;;7.30;;
6671;SDS011;3372;48.690;12.362;2022-07-10T00:18:50;8.20;;;7.40;;
6671;SDS011;3372;48.690;12.362;2022-07-10T00:21:15;8.60;;;7.73;;
6671;SDS011;3372;48.690;12.362;2022-07-10T00:23:41;8.17;;;7.37;;
6671;SDS011;3372;48.690;12.362;2022-07-10T00:26:07;8.87;;;7.80;;
6671;SDS011;3372;48.690;12.362;2022-07-10T00:28:34;8.40;;;7.63;;
6671;SDS011;3372;48.690;12.362;2022-07-10T00:31:00;8.53;;;7.73;;
6671;SDS011;3372;48.690;12.362;2022-07-10T00:33:25;8.53;;;7.50;;
6671;SDS011;3372;48.690;12.362;2022-07-10T00:35:52;11.33;;;7.63;;
6671;SDS011;3372;48.690;12.362;2022-07-10T00:38:18;7.67;;;6.97;;
6671;SDS011;3372;48.690;12.362;2022-07-10T00:40:44;8.50;;;7.70;;
6671;SDS011;3372;48.690;12.362;2022-07-10T00:43:10;8.60;;;7.07;;
6671;SDS011;3372;48.690;12.362;2022-07-10T00:45:36;7.80;;;7.10;;
6671;SDS011;3372;48.690;12.362;2022-07-10T00:48:02;8.13;;;7.40;;
6671;SDS011;3372;48.690;12.362;2022-07-10T00:50:28;8.30;;;7.50;;
6671;SDS011;3372;48.690;12.362;2022-07-10T00:52:54;8.80;;;7.97;;
6671;SDS011;3372;48.690;12.362;2022-07-10T00:55:20;8.40;;;7.50;;
6671;SDS011;3372;48.690;12.362;2022-07-10T00:57:46;8.13;;;7.40;;
6671;SDS011;3372;48.690;12.362;2022-07-10T01:00:13;9.33;;;7.20;;
6671;SDS011;3372;48.690;12.362;2022-07-10T01:02:42;9.80;;;7.50;;
6671;SDS011;3372;48.690;12.362;2022-07-10T01:05:08;8.07;;;7.37;;
6671;SDS011;3372;48.690;12.362;2022-07-10T01:07:35;8.17;;;7.40;;
6671;SDS011;3372;48.690;12.362;2022-07-10T01:10:01;8.37;;;7.67;;
6671;SDS011;3372;48.690;12.362;2022-07-10T01:12:27;8.17;;;7.37;;
6671;SDS011;3372;48.690;12.362;2022-07-10T01:14:53;8.33;;;7.33;;
6671;SDS011;3372;48.690;12.362;2022-07-10T01:17:19;8.10;;;7.40;;
6671;SDS011;3372;48.690;12.362;2022-07-10T01:19:45;7.87;;;7.07;;
6671;SDS011;3372;48.690;12.362;2022-07-10T01:22:11;7.77;;;7.07;;
6671;SDS011;3372;48.690;12.362;2022-07-10T01:24:36;7.97;;;6.90;;
6671;SDS011;3372;48.690;12.362;2022-07-10T01:27:02;7.90;;;7.17;;
6671;SDS011;3372;48.690;12.362;2022-07-10T01:29:28;8.07;;;7.30;;
6671;SDS011;3372;48.690;12.362;2022-07-10T01:31:54;8.67;;;7.87;;
6671;SDS011;3372;48.690;12.362;2022-07-10T01:34:20;8.97;;;6.70;;
6671;SDS011;3372;48.690;12.362;2022-07-10T01:36:46;7.40;;;6.70;;
6671;SDS011;3372;48.690;12.362;2022-07-10T01:39:12;7.70;;;6.90;;
6671;SDS011;3372;48.690;12.362;2022-07-10T01:41:38;8.90;;;7.63;;
6671;SDS011;3372;48.690;12.362;2022-07-10T01:44:04;7.97;;;7.20;;
6671;SDS011;3372;48.690;12.362;2022-07-10T01:46:29;7.00;;;6.40;;
6671;SDS011;3372;48.690;12.362;2022-07-10T01:48:55;7.77;;;6.77;;
6671;SDS011;3372;48.690;12.362;2022-07-10T01:51:21;7.30;;;6.60;;
6671;SDS011;3372;48.690;12.362;2022-07-10T01:53:47;7.60;;;6.83;;
6671;SDS011;3372;48.690;12.362;2022-07-10T01:56:14;8.13;;;7.33;;
6671;SDS011;3372;48.690;12.362;2022-07-10T01:58:40;8.83;;;7.43;;
6671;SDS011;3372;48.690;12.362;2022-07-10T02:01:06;7.87;;;7.07;;
6671;SDS011;3372;48.690;12.362;2022-07-10T02:03:32;7.97;;;7.27;;
6671;SDS011;3372;48.690;12.362;2022-07-10T02:06:17;10.37;;;7.60;;
6671;SDS011;3372;48.690;12.362;2022-07-10T02:08:42;7.70;;;7.00;;
6671;SDS011;3372;48.690;12.362;2022-07-10T02:11:08;10.23;;;8.20;;
6671;SDS011;3372;48.690;12.362;2022-07-10T02:13:37;8.00;;;7.20;;
6671;SDS011;3372;48.690;12.362;2022-07-10T02:16:03;8.13;;;7.33;;
6671;SDS011;3372;48.690;12.362;2022-07-10T02:18:29;8.97;;;8.00;;
6671;SDS011;3372;48.690;12.362;2022-07-10T02:20:55;7.97;;;7.17;;
6671;SDS011;3372;48.690;12.362;2022-07-10T02:23:21;8.00;;;7.13;;
6671;SDS011;3372;48.690;12.362;2022-07-10T02:25:46;7.47;;;6.70;;
6671;SDS011;3372;48.690;12.362;2022-07-10T02:28:12;9.40;;;6.87;;
6671;SDS011;3372;48.690;12.362;2022-07-10T02:30:37;10.73;;;7.27;;
6671;SDS011;3372;48.690;12.362;2022-07-10T02:33:03;8.10;;;7.30;;
6671;SDS011;3372;48.690;12.362;2022-07-10T02:35:28;8.43;;;7.63;;
6671;SDS011;3372;48.690;12.362;2022-07-10T02:37:54;11.83;;;7.40;;
6671;SDS011;3372;48.690;12.362;2022-07-10T02:40:20;10.13;;;7.40;;
6671;SDS011;3372;48.690;12.362;2022-07-10T02:42:45;8.53;;;7.67;;
6671;SDS011;3372;48.690;12.362;2022-07-10T02:45:11;7.20;;;6.50;;
6671;SDS011;3372;48.690;12.362;2022-07-10T02:47:37;7.43;;;6.67;;
6671;SDS011;3372;48.690;12.362;2022-07-10T02:50:02;8.20;;;7.40;;
6671;SDS011;3372;48.690;12.362;2022-07-10T02:52:28;8.00;;;7.20;;
6671;SDS011;3372;48.690;12.362;2022-07-10T02:54:57;8.77;;;7.87;;
6671;SDS011;3372;48.690;12.362;2022-07-10T02:57:23;8.63;;;7.80;;
6671;SDS011;3372;48.690;12.362;2022-07-10T02:59:48;8.43;;;7.57;;
6671;SDS011;3372;48.690;12.362;2022-07-10T03:02:14;8.07;;;7.20;;
6671;SDS011;3372;48.690;12.362;2022-07-10T03:04:40;8.90;;;8.00;;
6671;SDS011;3372;48.690;12.362;2022-07-10T03:07:06;10.23;;;7.70;;
6671;SDS011;3372;48.690;12.362;2022-07-10T03:09:32;9.20;;;7.50;;
6671;SDS011;3372;48.690;12.362;2022-07-10T03:11:58;8.00;;;7.17;;
6671;SDS011;3372;48.690;12.362;2022-07-10T03:14:23;11.73;;;8.10;;
6671;SDS011;3372;48.690;12.362;2022-07-10T03:16:49;8.70;;;7.80;;
6671;SDS011;3372;48.690;12.362;2022-07-10T03:19:14;9.13;;;7.97;;
6671;SDS011;3372;48.690;12.362;2022-07-10T03:21:40;9.00;;;7.40;;
6671;SDS011;3372;48.690;12.362;2022-07-10T03:24:06;8.67;;;7.53;;
6671;SDS011;3372;48.690;12.362;2022-07-10T03:26:31;11.50;;;7.90;;
6671;SDS011;3372;48.690;12.362;2022-07-10T03:28:57;12.03;;;7.87;;
6671;SDS011;3372;48.690;12.362;2022-07-10T03:31:22;8.80;;;7.20;;
6671;SDS011;3372;48.690;12.362;2022-07-10T03:33:48;8.63;;;7.77;;
6671;SDS011;3372;48.690;12.362;2022-07-10T03:36:14;8.90;;;7.40;;
6671;SDS011;3372;48.690;12.362;2022-07-10T03:38:39;9.00;;;7.60;;
6671;SDS011;3372;48.690;12.362;2022-07-10T03:41:05;9.70;;;7.50;;
6671;SDS011;3372;48.690;12.362;2022-07-10T03:43:31;8.53;;;7.73;;
6671;SDS011;3372;48.690;12.362;2022-07-10T03:45:57;8.80;;;6.70;;
6671;SDS011;3372;48.690;12.362;2022-07-10T03:48:23;8.67;;;7.77;;
6671;SDS011;3372;48.690;12.362;2022-07-10T03:50:49;8.53;;;7.03;;
6671;SDS011;3372;48.690;12.362;2022-07-10T03:53:18;9.60;;;7.13;;
6671;SDS011;3372;48.690;12.362;2022-07-10T03:55:44;7.30;;;6.60;;
6671;SDS011;3372;48.690;12.362;2022-07-10T03:58:10;8.23;;;7.40;;
6671;SDS011;3372;48.690;12.362;2022-07-10T04:00:36;8.23;;;6.40;;
6671;SDS011;3372;48.690;12.362;2022-07-10T04:03:03;7.90;;;7.07;;
6671;SDS011;3372;48.690;12.362;2022-07-10T04:05:31;10.17;;;6.40;;
6671;SDS011;3372;48.690;12.362;2022-07-10T04:07:57;8.07;;;6.90;;
6671;SDS011;3372;48.690;12.362;2022-07-10T04:10:23;7.90;;;7.10;;
6671;SDS011;3372;48.690;12.362;2022-07-10T04:12:50;5.93;;;5.43;;
6671;SDS011;3372;48.690;12.362;2022-07-10T04:15:16;8.37;;;6.60;;
6671;SDS011;3372;48.690;12.362;2022-07-10T04:17:42;9.13;;;6.70;;
6671;SDS011;3372;48.690;12.362;2022-07-10T04:20:08;6.77;;;6.00;;
6671;SDS011;3372;48.690;12.362;2022-07-10T04:22:34;10.60;;;7.40;;
6671;SDS011;3372;48.690;12.362;2022-07-10T04:25:00;7.07;;;6.37;;
6671;SDS011;3372;48.690;12.362;2022-07-10T04:27:25;7.10;;;6.40;;
6671;SDS011;3372;48.690;12.362;2022-07-10T04:29:51;8.20;;;6.40;;
6671;SDS011;3372;48.690;12.362;2022-07-10T04:32:17;6.73;;;6.00;;
6671;SDS011;3372;48.690;12.362;2022-07-10T04:34:43;9.40;;;6.30;;
6671;SDS011;3372;48.690;12.362;2022-07-10T04:37:08;6.53;;;5.93;;
6671;SDS011;3372;48.690;12.362;2022-07-10T04:39:35;6.83;;;6.13;;
6671;SDS011;3372;48.690;12.362;2022-07-10T04:42:04;9.20;;;6.40;;
6671;SDS011;3372;48.690;12.362;2022-07-10T04:44:30;8.33;;;5.90;;
6671;SDS011;3372;48.690;12.362;2022-07-10T04:46:57;6.63;;;5.60;;
6671;SDS011;3372;48.690;12.362;2022-07-10T04:49:23;7.40;;;6.10;;
6671;SDS011;3372;48.690;12.362;2022-07-10T04:51:49;6.23;;;5.50;;
6671;SDS011;3372;48.690;12.362;2022-07-10T04:54:15;6.73;;;5.90;;
6671;SDS011;3372;48.690;12.362;2022-07-10T04:56:40;8.00;;;6.10;;
6671;SDS011;3372;48.690;12.362;2022-07-10T04:59:06;8.40;;;5.80;;
6671;SDS011;3372;48.690;12.362;2022-07-10T05:01:32;6.63;;;5.67;;
6671;SDS011;3372;48.690;12.362;2022-07-10T05:03:58;6.43;;;5.80;;
6671;SDS011;3372;48.690;12.362;2022-07-10T05:06:23;9.53;;;6.23;;
6671;SDS011;3372;48.690;12.362;2022-07-10T05:08:49;9.20;;;5.60;;
6671;SDS011;3372;48.690;12.362;2022-07-10T05:11:15;5.77;;;5.20;;
6671;SDS011;3372;48.690;12.362;2022-07-10T05:13:41;7.70;;;6.07;;
6671;SDS011;3372;48.690;12.362;2022-07-10T05:16:10;7.23;;;5.23;;
6671;SDS011;3372;48.690;12.362;2022-07-10T05:18:36;8.77;;;5.43;;
6671;SDS011;3372;48.690;12.362;2022-07-10T05:21:03;11.67;;;5.00;;
6671;SDS011;3372;48.690;12.362;2022-07-10T05:23:28;5.07;;;4.57;;
6671;SDS011;3372;48.690;12.362;2022-07-10T05:25:54;7.10;;;4.87;;
6671;SDS011;3372;48.690;12.362;2022-07-10T05:28:20;4.67;;;4.27;;
6671;SDS011;3372;48.690;12.362;2022-07-10T05:30:45;5.37;;;4.87;;
6671;SDS011;3372;48.690;12.362;2022-07-10T05:33:11;5.97;;;4.50;;
6671;SDS011;3372;48.690;12.362;2022-07-10T05:35:37;5.77;;;4.70;;
6671;SDS011;3372;48.690;12.362;2022-07-10T05:38:02;6.10;;;4.80;;
6671;SDS011;3372;48.690;12.362;2022-07-10T05:40:28;5.13;;;4.50;;
6671;SDS011;3372;48.690;12.362;2022-07-10T05:42:54;9.33;;;4.70;;
6671;SDS011;3372;48.690;12.362;2022-07-10T05:45:19;7.40;;;4.80;;
6671;SDS011;3372;48.690;12.362;2022-07-10T05:47:45;4.87;;;4.37;;
6671;SDS011;3372;48.690;12.362;2022-07-10T05:50:10;5.13;;;4.60;;
6671;SDS011;3372;48.690;12.362;2022-07-10T05:52:36;4.53;;;4.03;;
6671;SDS011;3372;48.690;12.362;2022-07-10T05:55:02;4.70;;;4.30;;
6671;SDS011;3372;48.690;12.362;2022-07-10T05:57:32;5.17;;;4.70;;
6671;SDS011;3372;48.690;12.362;2022-07-10T05:59:57;6.17;;;4.87;;
6671;SDS011;3372;48.690;12.362;2022-07-10T06:02:23;5.10;;;4.27;;
6671;SDS011;3372;48.690;12.362;2022-07-10T06:04:49;9.70;;;4.50;;
6671;SDS011;3372;48.690;12.362;2022-07-10T06:07:15;4.30;;;3.90;;
6671;SDS011;3372;48.690;12.362;2022-07-10T06:09:41;7.00;;;4.03;;
6671;SDS011;3372;48.690;12.362;2022-07-10T06:12:06;7.60;;;4.23;;
6671;SDS011;3372;48.690;12.362;2022-07-10T06:14:32;5.50;;;4.10;;
6671;SDS011;3372;48.690;12.362;2022-07-10T06:16:57;4.57;;;4.13;;
6671;SDS011;3372;48.690;12.362;2022-07-10T06:19:23;5.27;;;3.73;;
6671;SDS011;3372;48.690;12.362;2022-07-10T06:21:49;4.43;;;4.03;;
6671;SDS011;3372;48.690;12.362;2022-07-10T06:24:34;5.73;;;4.30;;
6671;SDS011;3372;48.690;12.362;2022-07-10T06:27:00;6.93;;;4.03;;
6671;SDS011;3372;48.690;12.362;2022-07-10T06:29:26;6.27;;;3.97;;
6671;SDS011;3372;48.690;12.362;2022-07-10T06:31:51;4.03;;;3.63;;
6671;SDS011;3372;48.690;12.362;2022-07-10T06:34:17;4.57;;;3.70;;
6671;SDS011;3372;48.690;12.362;2022-07-10T06:36:44;8.30;;;3.80;;
6671;SDS011;3372;48.690;12.362;2022-07-10T06:39:10;4.90;;;3.87;;
6671;SDS011;3372;48.690;12.362;2022-07-10T06:41:35;5.07;;;3.33;;
6671;SDS011;3372;48.690;12.362;2022-07-10T06:44:01;6.33;;;3.60;;
6671;SDS011;3372;48.690;12.362;2022-07-10T06:46:28;5.30;;;4.03;;
6671;SDS011;3372;48.690;12.362;2022-07-10T06:48:54;6.03;;;4.00;;
6671;SDS011;3372;48.690;12.362;2022-07-10T06:51:20;4.23;;;3.77;;
6671;SDS011;3372;48.690;12.362;2022-07-10T06:53:45;5.10;;;4.20;;
6671;SDS011;3372;48.690;12.362;2022-07-10T06:56:11;6.20;;;4.40;;
6671;SDS011;3372;48.690;12.362;2022-07-10T06:58:39;6.67;;;3.43;;
6671;SDS011;3372;48.690;12.362;2022-07-10T07:01:04;5.27;;;4.53;;
6671;SDS011;3372;48.690;12.362;2022-07-10T07:03:30;6.00;;;4.60;;
6671;SDS011;3372;48.690;12.362;2022-07-10T07:05:55;8.80;;;4.97;;
6671;SDS011;3372;48.690;12.362;2022-07-10T07:08:21;5.53;;;3.93;;
6671;SDS011;3372;48.690;12.362;2022-07-10T07:10:46;5.70;;;4.00;;
6671;SDS011;3372;48.690;12.362;2022-07-10T07:13:12;5.40;;;3.70;;
6671;SDS011;3372;48.690;12.362;2022-07-10T07:15:38;5.07;;;4.10;;
6671;SDS011;3372;48.690;12.362;2022-07-10T07:18:07;6.00;;;4.13;;
6671;SDS011;3372;48.690;12.362;2022-07-10T07:20:36;7.30;;;4.30;;
6671;SDS011;3372;48.690;12.362;2022-07-10T07:23:21;5.60;;;3.70;;
6671;SDS011;3372;48.690;12.362;2022-07-10T07:25:47;5.13;;;4.10;;
6671;SDS011;3372;48.690;12.362;2022-07-10T07:28:13;5.67;;;4.13;;
6671;SDS011;3372;48.690;12.362;2022-07-10T07:30:41;7.00;;;3.90;;
6671;SDS011;3372;48.690;12.362;2022-07-10T07:33:07;7.70;;;4.10;;
6671;SDS011;3372;48.690;12.362;2022-07-10T07:35:33;5.50;;;3.53;;
6671;SDS011;3372;48.690;12.362;2022-07-10T07:38:00;5.57;;;4.20;;
6671;SDS011;3372;48.690;12.362;2022-07-10T07:40:27;4.10;;;3.70;;
6671;SDS011;3372;48.690;12.362;2022-07-10T07:42:54;4.90;;;3.70;;
6671;SDS011;3372;48.690;12.362;2022-07-10T07:45:21;5.40;;;3.40;;
6671;SDS011;3372;48.690;12.362;2022-07-10T07:47:51;3.67;;;3.27;;
6671;SDS011;3372;48.690;12.362;2022-07-10T07:50:22;4.20;;;3.50;;
6671;SDS011;3372;48.690;12.362;2022-07-10T07:52:52;6.50;;;3.60;;
6671;SDS011;3372;48.690;12.362;2022-07-10T07:55:19;3.97;;;3.50;;
6671;SDS011;3372;48.690;12.362;2022-07-10T07:57:46;3.70;;;3.20;;
6671;SDS011;3372;48.690;12.362;2022-07-10T08:00:13;5.00;;;3.17;;
6671;SDS011;3372;48.690;12.362;2022-07-10T08:02:39;7.40;;;3.40;;
6671;SDS011;3372;48.690;12.362;2022-07-10T08:05:05;6.13;;;3.10;;
6671;SDS011;3372;48.690;12.362;2022-07-10T08:07:38;4.80;;;3.50;;
6671;SDS011;3372;48.690;12.362;2022-07-10T08:10:08;3.97;;;3.00;;
6671;SDS011;3372;48.690;12.362;2022-07-10T08:12:35;4.20;;;3.23;;
6671;SDS011;3372;48.690;12.362;2022-07-10T08:15:00;6.57;;;3.10;;
6671;SDS011;3372;48.690;12.362;2022-07-10T08:17:26;5.33;;;3.53;;
6671;SDS011;3372;48.690;12.362;2022-07-10T08:19:53;5.20;;;3.13;;
6671;SDS011;3372;48.690;12.362;2022-07-10T08:22:18;5.30;;;3.20;;
6671;SDS011;3372;48.690;12.362;2022-07-10T08:24:44;6.53;;;3.53;;
6671;SDS011;3372;48.690;12.362;2022-07-10T08:27:10;5.63;;;3.13;;
6671;SDS011;3372;48.690;12.362;2022-07-10T08:29:37;7.40;;;3.20;;
6671;SDS011;3372;48.690;12.362;2022-07-10T08:32:03;5.37;;;3.43;;
6671;SDS011;3372;48.690;12.362;2022-07-10T08:34:29;10.47;;;5.33;;
6671;SDS011;3372;48.690;12.362;2022-07-10T08:36:55;7.37;;;4.87;;
6671;SDS011;3372;48.690;12.362;2022-07-10T08:39:21;3.07;;;2.77;;
6671;SDS011;3372;48.690;12.362;2022-07-10T08:41:47;5.90;;;3.70;;
6671;SDS011;3372;48.690;12.362;2022-07-10T08:44:16;5.13;;;3.30;;
6671;SDS011;3372;48.690;12.362;2022-07-10T08:46:43;4.23;;;2.90;;
6671;SDS011;3372;48.690;12.362;2022-07-10T08:49:10;4.83;;;2.80;;
6671;SDS011;3372;48.690;12.362;2022-07-10T08:52:23;6.80;;;3.27;;
6671;SDS011;3372;48.690;12.362;2022-07-10T08:54:30;5.40;;;3.17;;
6671;SDS011;3372;48.690;12.362;2022-07-10T08:56:57;3.23;;;2.93;;
6671;SDS011;3372;48.690;12.362;2022-07-10T08:59:28;4.00;;;3.30;;
6671;SDS011;3372;48.690;12.362;2022-07-10T09:01:54;4.43;;;2.50;;
6671;SDS011;3372;48.690;12.362;2022-07-10T09:04:22;4.77;;;2.97;;
6671;SDS011;3372;48.690;12.362;2022-07-10T09:06:49;4.73;;;2.53;;
6671;SDS011;3372;48.690;12.362;2022-07-10T09:09:16;6.30;;;2.53;;
6671;SDS011;3372;48.690;12.362;2022-07-10T09:11:41;3.93;;;2.43;;
6671;SDS011;3372;48.690;12.362;2022-07-10T09:14:08;10.00;;;5.70;;
6671;SDS011;3372;48.690;12.362;2022-07-10T09:16:37;4.73;;;3.63;;
6671;SDS011;3372;48.690;12.362;2022-07-10T09:21:46;6.07;;;4.43;;
6671;SDS011;3372;48.690;12.362;2022-07-10T09:24:13;4.60;;;3.40;;
6671;SDS011;3372;48.690;12.362;2022-07-10T09:26:39;5.13;;;3.20;;
6671;SDS011;3372;48.690;12.362;2022-07-10T09:29:09;4.07;;;3.67;;
6671;SDS011;3372;48.690;12.362;2022-07-10T09:31:59;5.43;;;3.63;;
6671;SDS011;3372;48.690;12.362;2022-07-10T09:40:06;2.80;;;2.40;;
6671;SDS011;3372;48.690;12.362;2022-07-10T09:42:37;3.50;;;2.17;;
6671;SDS011;3372;48.690;12.362;2022-07-10T09:48:09;3.97;;;1.70;;
6671;SDS011;3372;48.690;12.362;2022-07-10T09:50:33;3.60;;;2.10;;
6671;SDS011;3372;48.690;12.362;2022-07-10T09:53:04;2.50;;;1.77;;
6671;SDS011;3372;48.690;12.362;2022-07-10T09:55:32;3.87;;;2.00;;
6671;SDS011;3372;48.690;12.362;2022-07-10T09:58:00;2.87;;;2.10;;
6671;SDS011;3372;48.690;12.362;2022-07-10T10:00:30;8.53;;;2.20;;
6671;SDS011;3372;48.690;12.362;2022-07-10T10:02:59;3.03;;;2.10;;
6671;SDS011;3372;48.690;12.362;2022-07-10T10:05:33;3.60;;;2.23;;
6671;SDS011;3372;48.690;12.362;2022-07-10T10:10:51;2.73;;;2.00;;
6671;SDS011;3372;48.690;12.362;2022-07-10T10:13:21;5.07;;;2.10;;
6671;SDS011;3372;48.690;12.362;2022-07-10T10:15:48;2.33;;;2.00;;
6671;SDS011;3372;48.690;12.362;2022-07-10T10:18:26;6.30;;;2.40;;
6671;SDS011;3372;48.690;12.362;2022-07-10T10:20:55;3.60;;;1.63;;
6671;SDS011;3372;48.690;12.362;2022-07-10T10:23:22;3.60;;;1.90;;
6671;SDS011;3372;48.690;12.362;2022-07-10T10:25:50;2.37;;;1.57;;
6671;SDS011;3372;48.690;12.362;2022-07-10T10:28:26;3.10;;;1.50;;
6671;SDS011;3372;48.690;12.362;2022-07-10T10:30:52;3.33;;;1.60;;
6671;SDS011;3372;48.690;12.362;2022-07-10T10:36:02;2.60;;;1.60;;
6671;SDS011;3372;48.690;12.362;2022-07-10T10:47:03;2.90;;;1.67;;
6671;SDS011;3372;48.690;12.362;2022-07-10T10:49:50;2.93;;;2.00;;
6671;SDS011;3372;48.690;12.362;2022-07-10T10:52:18;2.10;;;1.60;;
6671;SDS011;3372;48.690;12.362;2022-07-10T10:57:23;2.30;;;1.50;;
6671;SDS011;3372;48.690;12.362;2022-07-10T10:59:58;2.83;;;1.60;;
6671;SDS011;3372;48.690;12.362;2022-07-10T11:02:32;3.37;;;1.70;;
6671;SDS011;3372;48.690;12.362;2022-07-10T11:10:29;4.83;;;1.93;;
6671;SDS011;3372;48.690;12.362;2022-07-10T11:12:56;2.27;;;1.40;;
6671;SDS011;3372;48.690;12.362;2022-07-10T11:15:30;1.73;;;1.10;;
6671;SDS011;3372;48.690;12.362;2022-07-10T11:18:19;4.33;;;1.60;;
6671;SDS011;3372;48.690;12.362;2022-07-10T11:20:47;2.70;;;1.53;;
6671;SDS011;3372;48.690;12.362;2022-07-10T11:26:19;5.40;;;2.30;;
6671;SDS011;3372;48.690;12.362;2022-07-10T11:29:09;2.27;;;1.60;;
6671;SDS011;3372;48.690;12.362;2022-07-10T11:31:35;3.63;;;1.60;;
6671;SDS011;3372;48.690;12.362;2022-07-10T11:34:09;2.90;;;1.67;;
6671;SDS011;3372;48.690;12.362;2022-07-10T11:36:38;2.83;;;1.50;;
6671;SDS011;3372;48.690;12.362;2022-07-10T11:39:07;2.40;;;1.43;;
6671;SDS011;3372;48.690;12.362;2022-07-10T11:41:34;2.87;;;1.90;;
6671;SDS011;3372;48.690;12.362;2022-07-10T11:44:06;3.23;;;1.83;;
6671;SDS011;3372;48.690;12.362;2022-07-10T11:46:37;4.70;;;1.70;;
6671;SDS011;3372;48.690;12.362;2022-07-10T11:49:06;3.20;;;1.67;;
6671;SDS011;3372;48.690;12.362;2022-07-10T11:51:37;4.30;;;1.63;;
6671;SDS011;3372;48.690;12.362;2022-07-10T11:56:31;3.40;;;1.93;;
6671;SDS011;3372;48.690;12.362;2022-07-10T11:58:59;3.23;;;1.63;;
6671;SDS011;3372;48.690;12.362;2022-07-10T12:01:28;4.43;;;1.70;;
6671;SDS011;3372;48.690;12.362;2022-07-10T12:04:04;3.43;;;1.60;;
6671;SDS011;3372;48.690;12.362;2022-07-10T12:06:35;4.03;;;1.80;;
6671;SDS011;3372;48.690;12.362;2022-07-10T12:09:04;5.57;;;2.03;;
6671;SDS011;3372;48.690;12.362;2022-07-10T12:11:34;5.10;;;1.90;;
6671;SDS011;3372;48.690;12.362;2022-07-10T12:14:11;2.60;;;1.60;;
6671;SDS011;3372;48.690;12.362;2022-07-10T12:16:39;1.80;;;1.60;;
6671;SDS011;3372;48.690;12.362;2022-07-10T12:19:10;2.50;;;1.40;;
6671;SDS011;3372;48.690;12.362;2022-07-10T12:21:38;2.87;;;1.47;;
6671;SDS011;3372;48.690;12.362;2022-07-10T12:24:04;3.83;;;1.43;;
6671;SDS011;3372;48.690;12.362;2022-07-10T12:26:31;7.33;;;1.80;;
6671;SDS011;3372;48.690;12.362;2022-07-10T12:29:01;2.83;;;1.70;;
6671;SDS011;3372;48.690;12.362;2022-07-10T12:31:29;2.10;;;1.60;;
6671;SDS011;3372;48.690;12.362;2022-07-10T12:34:05;2.20;;;1.30;;
6671;SDS011;3372;48.690;12.362;2022-07-10T12:39:21;2.90;;;1.47;;
6671;SDS011;3372;48.690;12.362;2022-07-10T12:41:55;2.77;;;1.40;;
6671;SDS011;3372;48.690;12.362;2022-07-10T12:44:32;3.00;;;1.20;;
6671;SDS011;3372;48.690;12.362;2022-07-10T12:47:01;3.50;;;1.20;;
6671;SDS011;3372;48.690;12.362;2022-07-10T12:49:28;2.23;;;1.63;;
6671;SDS011;3372;48.690;12.362;2022-07-10T12:51:54;2.80;;;1.30;;
6671;SDS011;3372;48.690;12.362;2022-07-10T12:54:33;2.23;;;1.30;;
6671;SDS011;3372;48.690;12.362;2022-07-10T12:56:59;2.57;;;1.37;;
6671;SDS011;3372;48.690;12.362;2022-07-10T12:59:26;3.20;;;1.20;;
6671;SDS011;3372;48.690;12.362;2022-07-10T13:01:52;1.97;;;1.20;;
6671;SDS011;3372;48.690;12.362;2022-07-10T13:04:24;2.17;;;1.30;;
6671;SDS011;3372;48.690;12.362;2022-07-10T13:06:52;1.97;;;1.07;;
6671;SDS011;3372;48.690;12.362;2022-07-10T13:09:22;2.00;;;1.10;;
6671;SDS011;3372;48.690;12.362;2022-07-10T13:11:49;2.23;;;1.30;;
6671;SDS011;3372;48.690;12.362;2022-07-10T13:14:16;2.20;;;1.10;;
6671;SDS011;3372;48.690;12.362;2022-07-10T13:16:42;3.80;;;1.23;;
6671;SDS011;3372;48.690;12.362;2022-07-10T13:19:08;1.37;;;1.10;;
6671;SDS011;3372;48.690;12.362;2022-07-10T13:21:34;2.17;;;1.33;;
6671;SDS011;3372;48.690;12.362;2022-07-10T13:24:00;3.10;;;1.10;;
6671;SDS011;3372;48.690;12.362;2022-07-10T13:26:25;3.83;;;1.20;;
6671;SDS011;3372;48.690;12.362;2022-07-10T13:28:54;2.40;;;1.30;;
6671;SDS011;3372;48.690;12.362;2022-07-10T13:31:20;1.97;;;1.17;;
6671;SDS011;3372;48.690;12.362;2022-07-10T13:33:45;1.43;;;0.90;;
6671;SDS011;3372;48.690;12.362;2022-07-10T13:36:11;3.13;;;1.30;;
6671;SDS011;3372;48.690;12.362;2022-07-10T13:38:37;2.17;;;1.27;;
6671;SDS011;3372;48.690;12.362;2022-07-10T13:41:02;2.40;;;1.20;;
6671;SDS011;3372;48.690;12.362;2022-07-10T13:43:28;1.93;;;0.90;;
6671;SDS011;3372;48.690;12.362;2022-07-10T13:45:57;2.23;;;1.13;;
6671;SDS011;3372;48.690;12.362;2022-07-10T13:48:24;2.23;;;1.10;;
6671;SDS011;3372;48.690;12.362;2022-07-10T13:50:51;2.50;;;1.10;;
6671;SDS011;3372;48.690;12.362;2022-07-10T13:53:16;2.23;;;1.00;;
6671;SDS011;3372;48.690;12.362;2022-07-10T13:55:43;2.60;;;1.00;;
6671;SDS011;3372;48.690;12.362;2022-07-10T13:58:09;2.30;;;1.00;;
6671;SDS011;3372;48.690;12.362;2022-07-10T14:00:35;2.07;;;1.10;;
6671;SDS011;3372;48.690;12.362;2022-07-10T14:03:02;1.80;;;1.10;;
6671;SDS011;3372;48.690;12.362;2022-07-10T14:05:28;2.20;;;1.00;;
6671;SDS011;3372;48.690;12.362;2022-07-10T14:07:54;1.33;;;1.13;;
6671;SDS011;3372;48.690;12.362;2022-07-10T14:10:20;4.53;;;2.37;;
6671;SDS011;3372;48.690;12.362;2022-07-10T14:12:46;4.40;;;3.83;;
6671;SDS011;3372;48.690;12.362;2022-07-10T14:15:12;1.60;;;1.10;;
6671;SDS011;3372;48.690;12.362;2022-07-10T14:17:38;2.40;;;1.00;;
6671;SDS011;3372;48.690;12.362;2022-07-10T14:20:04;1.27;;;0.80;;
6671;SDS011;3372;48.690;12.362;2022-07-10T14:22:30;1.40;;;1.10;;
6671;SDS011;3372;48.690;12.362;2022-07-10T14:24:56;2.00;;;1.20;;
6671;SDS011;3372;48.690;12.362;2022-07-10T14:27:23;2.30;;;1.00;;
6671;SDS011;3372;48.690;12.362;2022-07-10T14:29:49;1.57;;;0.90;;
6671;SDS011;3372;48.690;12.362;2022-07-10T14:32:15;1.90;;;1.00;;
6671;SDS011;3372;48.690;12.362;2022-07-10T14:34:41;1.63;;;0.83;;
6671;SDS011;3372;48.690;12.362;2022-07-10T14:37:07;2.23;;;1.10;;
6671;SDS011;3372;48.690;12.362;2022-07-10T14:39:32;2.50;;;1.10;;
6671;SDS011;3372;48.690;12.362;2022-07-10T14:41:58;1.23;;;1.00;;
6671;SDS011;3372;48.690;12.362;2022-07-10T14:44:23;1.97;;;0.83;;
6671;SDS011;3372;48.690;12.362;2022-07-10T14:46:49;2.23;;;1.20;;
6671;SDS011;3372;48.690;12.362;2022-07-10T14:49:15;2.57;;;1.30;;
6671;SDS011;3372;48.690;12.362;2022-07-10T14:51:40;1.27;;;0.97;;
6671;SDS011;3372;48.690;12.362;2022-07-10T14:54:07;2.17;;;1.10;;
6671;SDS011;3372;48.690;12.362;2022-07-10T14:56:33;1.30;;;1.00;;
6671;SDS011;3372;48.690;12.362;2022-07-10T14:58:58;1.63;;;1.10;;
6671;SDS011;3372;48.690;12.362;2022-07-10T15:01:24;2.00;;;1.40;;
6671;SDS011;3372;48.690;12.362;2022-07-10T15:03:49;1.47;;;1.10;;
6671;SDS011;3372;48.690;12.362;2022-07-10T15:06:15;2.40;;;1.43;;
6671;SDS011;3372;48.690;12.362;2022-07-10T15:08:41;2.20;;;1.00;;
6671;SDS011;3372;48.690;12.362;2022-07-10T15:11:06;1.87;;;1.17;;
6671;SDS011;3372;48.690;12.362;2022-07-10T15:13:32;1.83;;;1.10;;
6671;SDS011;3372;48.690;12.362;2022-07-10T15:15:58;2.17;;;1.10;;
6671;SDS011;3372;48.690;12.362;2022-07-10T15:18:25;1.40;;;1.10;;
6671;SDS011;3372;48.690;12.362;2022-07-10T15:20:51;1.90;;;1.20;;
6671;SDS011;3372;48.690;12.362;2022-07-10T15:23:16;2.30;;;1.13;;
6671;SDS011;3372;48.690;12.362;2022-07-10T15:25:42;2.10;;;1.20;;
6671;SDS011;3372;48.690;12.362;2022-07-10T15:28:09;2.97;;;1.30;;
6671;SDS011;3372;48.690;12.362;2022-07-10T15:30:36;3.73;;;1.67;;
6671;SDS011;3372;48.690;12.362;2022-07-10T15:33:03;2.27;;;1.10;;
6671;SDS011;3372;48.690;12.362;2022-07-10T15:35:29;2.33;;;1.27;;
6671;SDS011;3372;48.690;12.362;2022-07-10T15:37:55;2.03;;;1.20;;
6671;SDS011;3372;48.690;12.362;2022-07-10T15:40:21;2.63;;;1.53;;
6671;SDS011;3372;48.690;12.362;2022-07-10T15:42:47;2.13;;;1.20;;